Time;durP1;ratioP1;P1;durP2;ratioP2;P2;SDS_P1;SDS_P2;PMS_P1;PMS_P2;Temp;Humidity;BMP_temperature;BMP_pressure;BME280_temperature;BME280_humidity;BME280_pressure;Samples;Min_cycle;Max_cycle;Signal;HPM_P1;HPM_P2
2023/06/09 00:00:19;;;;;;;10.77;8.93;;;;;;;;;;4997927;28;20014;-80
2023/06/09 00:02:50;;;;;;;12.73;10.43;;;;;;;;;;4997990;28;20034;-80
2023/06/09 00:05:23;;;;;;;11.20;9.32;;;;;;;;;;5006766;28;20018;-80
2023/06/09 00:08:03;;;;;;;11.07;9.73;;;;;;;;;;4999303;28;20034;-79
2023/06/09 00:10:34;;;;;;;11.15;9.52;;;;;;;;;;4996398;28;20022;-81
2023/06/09 00:13:03;;;;;;;12.27;9.65;;;;;;;;;;4997726;28;20048;-80
2023/06/09 00:15:31;;;;;;;15.00;9.50;;;;;;;;;;4997060;28;21212;-80
2023/06/09 00:17:57;;;;;;;12.50;9.50;;;;;;;;;;4996421;28;20045;-79
2023/06/09 00:20:33;;;;;;;12.05;10.18;;;;;;;;;;5008375;28;20040;-79
2023/06/09 00:23:01;;;;;;;10.32;9.20;;;;;;;;;;4996227;28;20082;-80
2023/06/09 00:25:27;;;;;;;11.77;9.98;;;;;;;;;;4996578;28;20030;-81
2023/06/09 00:27:56;;;;;;;12.30;9.68;;;;;;;;;;4997496;28;20018;-79
2023/06/09 00:30:23;;;;;;;12.00;10.70;;;;;;;;;;5000245;28;20025;-81
2023/06/09 00:32:51;;;;;;;12.52;9.13;;;;;;;;;;5015551;28;20094;-82
2023/06/09 00:35:17;;;;;;;13.45;10.05;;;;;;;;;;5001044;28;20026;-80
2023/06/09 00:37:44;;;;;;;12.75;9.63;;;;;;;;;;5002121;28;20009;-81
2023/06/09 00:40:16;;;;;;;12.82;9.20;;;;;;;;;;4997610;28;20062;-80
2023/06/09 00:42:47;;;;;;;14.93;9.45;;;;;;;;;;5000951;28;20041;-79
2023/06/09 00:45:16;;;;;;;11.35;9.35;;;;;;;;;;5001384;28;20033;-81
2023/06/09 00:47:45;;;;;;;12.35;9.57;;;;;;;;;;4994088;28;20034;-81
2023/06/09 00:50:12;;;;;;;11.82;8.88;;;;;;;;;;4999669;28;20045;-81
2023/06/09 00:52:55;;;;;;;13.38;9.50;;;;;;;;;;4996066;28;20044;-80
2023/06/09 00:55:22;;;;;;;;;;;;;;;;;;5000865;28;20051;-79
2023/06/09 00:57:55;;;;;;;12.35;9.45;;;;;;;;;;5014551;28;19970;-79
2023/06/09 01:00:24;;;;;;;11.18;9.07;;;;;;;;;;5004013;28;20019;-80
2023/06/09 01:02:52;;;;;;;12.13;9.75;;;;;;;;;;4996508;28;20015;-79
2023/06/09 01:05:18;;;;;;;11.20;9.38;;;;;;;;;;4997165;28;20015;-80
2023/06/09 01:08:04;;;;;;;11.60;9.95;;;;;;;;;;4998256;28;20102;-79
2023/06/09 01:10:42;;;;;;;10.05;9.02;;;;;;;;;;4998934;28;20046;-80
2023/06/09 01:13:24;;;;;;;12.85;10.25;;;;;;;;;;5000106;28;20041;-81
2023/06/09 01:15:58;;;;;;;14.45;10.43;;;;;;;;;;4999112;28;20010;-80
2023/06/09 01:18:30;;;;;;;13.48;10.57;;;;;;;;;;4998478;28;20022;-81
2023/06/09 01:21:01;;;;;;;;;;;;;;;;;;4997503;28;20042;-79
2023/06/09 01:23:51;;;;;;;15.18;9.98;;;;;;;;;;4998823;28;19920;-80
2023/06/09 01:26:22;;;;;;;15.20;10.73;;;;;;;;;;5016606;28;20018;-80
2023/06/09 01:28:51;;;;;;;14.50;11.10;;;;;;;;;;5001469;28;20042;-80
2023/06/09 01:31:19;;;;;;;13.40;10.93;;;;;;;;;;5017178;28;20026;-80
2023/06/09 01:33:46;;;;;;;14.13;11.10;;;;;;;;;;4998022;28;20022;-80
2023/06/09 01:36:14;;;;;;;14.10;10.63;;;;;;;;;;5001536;28;20038;-80
2023/06/09 01:38:43;;;;;;;12.32;9.25;;;;;;;;;;5002314;28;20038;-83
2023/06/09 01:41:09;;;;;;;12.35;10.38;;;;;;;;;;4999488;28;20469;-81
2023/06/09 01:43:35;;;;;;;11.27;9.27;;;;;;;;;;4999289;28;20038;-81
2023/06/09 01:46:04;;;;;;;12.95;9.98;;;;;;;;;;4996070;28;20014;-79
2023/06/09 01:48:30;;;;;;;12.15;10.43;;;;;;;;;;4996441;28;20034;-79
2023/06/09 01:51:00;;;;;;;15.85;9.75;;;;;;;;;;4997156;28;20106;-82
2023/06/09 01:53:29;;;;;;;12.83;10.03;;;;;;;;;;4998321;28;20042;-81
2023/06/09 01:56:14;;;;;;;14.37;9.53;;;;;;;;;;4996592;28;20026;-79
2023/06/09 01:58:45;;;;;;;12.67;10.53;;;;;;;;;;4998527;28;20026;-80
2023/06/09 02:01:13;;;;;;;17.95;11.15;;;;;;;;;;5015947;28;20030;-79
2023/06/09 02:03:42;;;;;;;12.23;10.82;;;;;;;;;;5003646;28;20041;-79
2023/06/09 02:06:12;;;;;;;12.13;10.43;;;;;;;;;;5016486;28;20022;-79
2023/06/09 02:08:40;;;;;;;13.50;10.20;;;;;;;;;;4999999;28;20041;-80
2023/06/09 02:11:14;;;;;;;16.02;10.70;;;;;;;;;;4996559;28;20018;-79
2023/06/09 02:13:40;;;;;;;12.40;10.47;;;;;;;;;;4997343;28;20038;-79
2023/06/09 02:16:11;;;;;;;14.13;9.57;;;;;;;;;;4998141;28;20027;-79
2023/06/09 02:18:38;;;;;;;12.50;9.63;;;;;;;;;;4995223;28;20045;-80
2023/06/09 02:21:04;;;;;;;12.50;9.80;;;;;;;;;;4995982;28;20031;-79
2023/06/09 02:23:30;;;;;;;14.57;10.33;;;;;;;;;;4999792;28;20031;-79
2023/06/09 02:25:59;;;;;;;13.40;10.07;;;;;;;;;;4999977;28;20124;-78
2023/06/09 02:28:25;;;;;;;13.77;10.77;;;;;;;;;;5003561;28;20048;-78
2023/06/09 02:30:51;;;;;;;14.50;10.73;;;;;;;;;;5000499;28;20035;-79
2023/06/09 02:33:20;;;;;;;12.17;9.60;;;;;;;;;;4999519;28;20084;-80
2023/06/09 02:35:46;;;;;;;13.03;10.60;;;;;;;;;;4996051;28;20019;-79
2023/06/09 02:38:14;;;;;;;15.17;9.93;;;;;;;;;;5016306;28;20010;-81
2023/06/09 02:40:48;;;;;;;11.20;9.43;;;;;;;;;;5008608;28;20162;-79
2023/06/09 02:43:16;;;;;;;11.57;10.10;;;;;;;;;;4997967;28;20010;-82
2023/06/09 02:45:43;;;;;;;14.87;10.40;;;;;;;;;;4998705;28;20023;-79
2023/06/09 02:48:09;;;;;;;15.77;10.73;;;;;;;;;;4996991;28;20043;-79
2023/06/09 02:50:40;;;;;;;13.40;10.53;;;;;;;;;;4996423;28;20039;-79
2023/06/09 02:53:06;;;;;;;14.23;10.10;;;;;;;;;;4998503;28;20042;-80
2023/06/09 02:55:33;;;;;;;15.10;11.93;;;;;;;;;;4996992;28;20049;-80
2023/06/09 02:57:59;;;;;;;15.83;11.30;;;;;;;;;;4997823;28;20053;-80
2023/06/09 03:00:25;;;;;;;14.73;10.97;;;;;;;;;;4998370;28;20026;-79
2023/06/09 03:02:54;;;;;;;13.97;10.77;;;;;;;;;;5002706;28;20026;-79
2023/06/09 03:05:20;;;;;;;14.53;11.83;;;;;;;;;;4998774;28;20026;-80
2023/06/09 03:07:48;;;;;;;13.40;10.43;;;;;;;;;;4998035;28;20133;-80
2023/06/09 03:10:14;;;;;;;13.30;10.83;;;;;;;;;;4998005;28;20018;-79
2023/06/09 03:12:40;;;;;;;12.50;10.33;;;;;;;;;;4998348;28;20018;-79
2023/06/09 03:15:09;;;;;;;14.50;10.60;;;;;;;;;;4998451;28;20011;-79
2023/06/09 03:17:41;;;;;;;17.00;10.80;;;;;;;;;;4996510;28;20129;-80
2023/06/09 03:20:07;;;;;;;14.73;10.97;;;;;;;;;;5001623;28;20037;-78
2023/06/09 03:22:33;;;;;;;14.20;11.57;;;;;;;;;;5001276;28;20207;-80
2023/06/09 03:25:01;;;;;;;14.67;10.60;;;;;;;;;;5003588;28;20041;-80
2023/06/09 03:27:27;;;;;;;15.80;11.33;;;;;;;;;;4998105;28;20014;-81
2023/06/09 03:29:53;;;;;;;15.80;11.20;;;;;;;;;;4996764;28;20143;-79
2023/06/09 03:32:19;;;;;;;12.60;10.10;;;;;;;;;;4997578;28;20018;-78
2023/06/09 03:34:45;;;;;;;14.23;11.07;;;;;;;;;;5000174;28;20023;-80
2023/06/09 03:37:14;;;;;;;12.10;10.43;;;;;;;;;;4999603;28;20048;-79
2023/06/09 03:39:40;;;;;;;12.57;10.07;;;;;;;;;;5007833;28;20042;-79
2023/06/09 03:42:09;;;;;;;15.60;11.13;;;;;;;;;;4999313;28;20089;-79
2023/06/09 03:44:35;;;;;;;13.10;10.27;;;;;;;;;;4994947;28;20046;-79
2023/06/09 03:47:04;;;;;;;12.73;10.20;;;;;;;;;;5000537;28;20048;-79
2023/06/09 03:49:35;;;;;;;13.83;11.00;;;;;;;;;;5001445;28;20156;-80
2023/06/09 03:52:06;;;;;;;17.37;11.63;;;;;;;;;;4997758;28;20026;-79
2023/06/09 03:54:34;;;;;;;13.30;10.27;;;;;;;;;;5018631;28;20029;-80
2023/06/09 03:57:03;;;;;;;13.97;10.83;;;;;;;;;;4997998;28;20038;-79
2023/06/09 03:59:29;;;;;;;12.07;9.87;;;;;;;;;;5011528;28;20036;-82
2023/06/09 04:01:58;;;;;;;11.47;9.47;;;;;;;;;;4998376;28;20006;-79
2023/06/09 04:04:24;;;;;;;12.50;10.10;;;;;;;;;;4994448;28;20109;-80
2023/06/09 04:06:50;;;;;;;13.37;10.90;;;;;;;;;;4995594;28;20093;-80
2023/06/09 04:09:16;;;;;;;16.67;11.03;;;;;;;;;;4999274;28;20026;-79
2023/06/09 04:11:47;;;;;;;16.80;11.03;;;;;;;;;;4997777;28;20027;-79
2023/06/09 04:14:13;;;;;;;13.73;11.37;;;;;;;;;;5008913;28;20017;-78
2023/06/09 04:16:39;;;;;;;13.97;10.67;;;;;;;;;;4999357;28;20021;-81
2023/06/09 04:19:06;;;;;;;12.80;10.73;;;;;;;;;;4995487;28;20037;-79
2023/06/09 04:21:36;;;;;;;13.20;10.93;;;;;;;;;;4997268;28;20018;-79
2023/06/09 04:24:04;;;;;;;18.00;11.90;;;;;;;;;;4999274;28;20074;-79
2023/06/09 04:26:32;;;;;;;14.83;11.97;;;;;;;;;;4997178;28;20026;-81
2023/06/09 04:28:59;;;;;;;14.50;11.97;;;;;;;;;;5001281;28;20034;-79
2023/06/09 04:31:33;;;;;;;13.97;11.47;;;;;;;;;;4998264;28;20013;-80
2023/06/09 04:34:11;;;;;;;14.33;11.87;;;;;;;;;;4997838;28;20077;-80
2023/06/09 04:36:40;;;;;;;17.00;11.57;;;;;;;;;;4997765;28;20049;-79
2023/06/09 04:39:09;;;;;;;17.03;12.27;;;;;;;;;;4999550;28;20090;-80
2023/06/09 04:41:37;;;;;;;15.30;11.03;;;;;;;;;;5001639;28;20021;-80
2023/06/09 04:44:05;;;;;;;15.57;12.43;;;;;;;;;;4997872;28;20018;-81
2023/06/09 04:46:37;;;;;;;15.07;12.43;;;;;;;;;;5016674;28;20026;-81
2023/06/09 04:49:08;;;;;;;13.10;11.65;;;;;;;;;;5012644;28;20087;-80
2023/06/09 04:51:41;;;;;;;19.43;13.27;;;;;;;;;;4998494;28;20042;-80
2023/06/09 04:54:08;;;;;;;18.50;13.40;;;;;;;;;;5000895;28;20027;-79
2023/06/09 04:56:36;;;;;;;15.02;12.90;;;;;;;;;;4998188;28;20051;-79
2023/06/09 04:59:07;;;;;;;17.25;14.32;;;;;;;;;;4996450;28;20026;-80
2023/06/09 05:01:33;;;;;;;16.70;13.60;;;;;;;;;;4996446;28;20042;-81
2023/06/09 05:04:00;;;;;;;14.57;13.07;;;;;;;;;;4997832;28;20133;-80
2023/06/09 05:06:26;;;;;;;17.05;13.45;;;;;;;;;;4997331;28;20061;-79
2023/06/09 05:08:54;;;;;;;13.70;12.23;;;;;;;;;;4997216;28;20046;-79
2023/06/09 05:11:20;;;;;;;18.75;14.07;;;;;;;;;;4995549;28;20034;-80
2023/06/09 05:13:49;;;;;;;27.45;16.00;;;;;;;;;;5012744;28;20049;-80
2023/06/09 05:16:28;;;;;;;21.33;15.80;;;;;;;;;;5000414;28;20030;-79
2023/06/09 05:18:57;;;;;;;19.88;16.25;;;;;;;;;;4998986;28;20041;-82
2023/06/09 05:21:27;;;;;;;22.05;14.73;;;;;;;;;;5008355;28;20053;-79
2023/06/09 05:23:53;;;;;;;24.17;15.90;;;;;;;;;;4998609;28;20049;-82
2023/06/09 05:26:21;;;;;;;18.48;15.95;;;;;;;;;;5015610;28;20034;-80
2023/06/09 05:28:48;;;;;;;18.65;15.30;;;;;;;;;;5013643;28;20058;-80
2023/06/09 05:31:14;;;;;;;20.67;15.85;;;;;;;;;;4998492;28;20014;-81
2023/06/09 05:33:40;;;;;;;16.17;14.50;;;;;;;;;;4998643;28;20022;-80
2023/06/09 05:36:08;;;;;;;18.88;13.90;;;;;;;;;;4998328;28;20069;-82
2023/06/09 05:38:34;;;;;;;15.35;13.75;;;;;;;;;;4997764;28;20406;-80
2023/06/09 05:41:00;;;;;;;16.45;13.80;;;;;;;;;;5000004;28;20018;-81
2023/06/09 05:43:27;;;;;;;14.82;12.20;;;;;;;;;;4995395;28;20069;-80
2023/06/09 05:45:53;;;;;;;14.82;12.85;;;;;;;;;;4996354;28;20025;-81
2023/06/09 05:48:19;;;;;;;15.48;13.88;;;;;;;;;;4996974;28;20037;-81
2023/06/09 05:50:49;;;;;;;17.90;12.75;;;;;;;;;;5008772;28;20023;-81
2023/06/09 05:53:21;;;;;;;17.15;12.27;;;;;;;;;;5010693;28;20030;-79
2023/06/09 05:55:52;;;;;;;13.30;11.65;;;;;;;;;;4995121;28;20169;-79
2023/06/09 05:58:21;;;;;;;14.65;12.50;;;;;;;;;;4993999;28;20034;-80
2023/06/09 06:01:09;;;;;;;15.68;11.27;;;;;;;;;;5004757;28;20030;-79
2023/06/09 06:03:36;;;;;;;12.15;10.32;;;;;;;;;;5010650;28;21123;-80
2023/06/09 06:06:03;;;;;;;11.70;9.10;;;;;;;;;;4993865;28;20022;-79
2023/06/09 06:08:31;;;;;;;11.60;9.95;;;;;;;;;;4993571;28;20046;-80
2023/06/09 06:10:57;;;;;;;10.52;8.68;;;;;;;;;;4997717;28;20042;-80
2023/06/09 06:13:26;;;;;;;11.70;9.25;;;;;;;;;;4996804;28;20025;-80
2023/06/09 06:15:54;;;;;;;12.07;8.18;;;;;;;;;;5011040;28;20030;-78
2023/06/09 06:18:21;;;;;;;9.40;8.13;;;;;;;;;;4998493;28;20049;-79
2023/06/09 06:20:50;;;;;;;7.95;7.15;;;;;;;;;;4997186;28;20046;-79
2023/06/09 06:23:16;;;;;;;8.68;7.10;;;;;;;;;;4995060;28;20007;-79
2023/06/09 06:25:42;;;;;;;17.98;7.78;;;;;;;;;;4996885;28;20041;-80
2023/06/09 06:28:11;;;;;;;8.55;7.35;;;;;;;;;;4994162;28;20045;-80
2023/06/09 06:30:40;;;;;;;9.60;7.45;;;;;;;;;;4995954;28;20026;-79
2023/06/09 06:33:07;;;;;;;11.70;6.82;;;;;;;;;;4995525;28;20022;-80
2023/06/09 06:35:33;;;;;;;9.40;6.55;;;;;;;;;;4999806;28;20030;-80
2023/06/09 06:37:59;;;;;;;9.57;6.82;;;;;;;;;;4994266;28;20336;-80
2023/06/09 06:40:28;;;;;;;9.88;6.88;;;;;;;;;;5013417;28;20014;-79
2023/06/09 06:42:55;;;;;;;9.15;6.32;;;;;;;;;;4994900;28;20030;-79
2023/06/09 06:45:26;;;;;;;8.13;6.38;;;;;;;;;;4996328;28;20037;-79
2023/06/09 06:47:53;;;;;;;10.00;6.05;;;;;;;;;;4995906;28;20021;-81
2023/06/09 06:50:19;;;;;;;7.30;5.30;;;;;;;;;;4998386;28;20065;-78
2023/06/09 06:52:46;;;;;;;8.82;6.05;;;;;;;;;;4994901;28;20015;-80
2023/06/09 06:55:12;;;;;;;7.63;5.80;;;;;;;;;;4995435;28;20037;-79
2023/06/09 06:57:41;;;;;;;11.30;6.22;;;;;;;;;;5013524;28;20042;-80
2023/06/09 07:02:57;;;;;;;8.50;6.10;;;;;;;;;;5000564;28;20014;-80
2023/06/09 07:05:23;;;;;;;11.55;6.05;;;;;;;;;;4994108;28;20089;-80
2023/06/09 07:07:49;;;;;;;9.40;6.45;;;;;;;;;;4997298;28;21178;-80
2023/06/09 07:10:15;;;;;;;9.30;7.38;;;;;;;;;;4997905;28;20038;-78
2023/06/09 07:12:41;;;;;;;16.35;10.05;;;;;;;;;;4998627;28;20027;-80
2023/06/09 07:15:07;;;;;;;8.55;6.85;;;;;;;;;;4995150;28;20018;-80
2023/06/09 07:17:34;;;;;;;8.05;5.97;;;;;;;;;;4996925;28;20018;-80
2023/06/09 07:20:00;;;;;;;8.32;6.00;;;;;;;;;;4996705;28;20098;-80
2023/06/09 07:22:28;;;;;;;11.82;6.40;;;;;;;;;;4994186;28;20845;-79
2023/06/09 07:24:54;;;;;;;11.35;6.22;;;;;;;;;;4996793;28;20070;-80
2023/06/09 07:27:29;;;;;;;7.63;6.07;;;;;;;;;;4996214;28;20026;-80
2023/06/09 07:29:58;;;;;;;9.15;6.20;;;;;;;;;;4994936;28;20033;-80
2023/06/09 07:32:24;;;;;;;12.40;5.85;;;;;;;;;;4997807;28;20025;-80
2023/06/09 07:34:50;;;;;;;7.35;6.22;;;;;;;;;;4998511;28;20030;-79
2023/06/09 07:37:16;;;;;;;8.27;6.53;;;;;;;;;;4996390;28;20027;-80
2023/06/09 07:39:42;;;;;;;8.57;5.90;;;;;;;;;;5011945;28;20053;-80
2023/06/09 07:42:08;;;;;;;7.35;5.68;;;;;;;;;;4996345;28;20026;-80
2023/06/09 07:44:35;;;;;;;9.48;6.32;;;;;;;;;;4998439;28;20042;-80
2023/06/09 07:47:01;;;;;;;12.68;6.30;;;;;;;;;;5002551;28;20077;-80
2023/06/09 07:49:27;;;;;;;8.50;5.57;;;;;;;;;;4999893;28;20049;-79
2023/06/09 07:51:53;;;;;;;8.88;6.18;;;;;;;;;;4997956;28;20037;-80
2023/06/09 07:54:20;;;;;;;8.82;5.93;;;;;;;;;;4997527;28;20061;-81
2023/06/09 07:56:49;;;;;;;6.43;5.72;;;;;;;;;;4996649;28;20050;-79
2023/06/09 07:59:15;;;;;;;6.28;5.68;;;;;;;;;;4998845;28;20014;-80
2023/06/09 08:01:41;;;;;;;8.35;5.82;;;;;;;;;;4996480;28;20090;-79
2023/06/09 08:04:07;;;;;;;8.27;5.65;;;;;;;;;;4997135;28;20026;-79
2023/06/09 08:06:34;;;;;;;12.10;5.63;;;;;;;;;;4995237;28;20072;-80
2023/06/09 08:09:00;;;;;;;7.30;5.47;;;;;;;;;;4996270;28;20102;-82
2023/06/09 08:11:26;;;;;;;9.00;6.47;;;;;;;;;;4993138;28;20031;-80
2023/06/09 08:13:58;;;;;;;7.18;5.90;;;;;;;;;;4993379;28;20073;-83
2023/06/09 08:16:24;;;;;;;7.07;5.55;;;;;;;;;;4992589;28;20879;-83
2023/06/09 08:18:50;;;;;;;10.27;6.13;;;;;;;;;;5004505;28;20081;-84
2023/06/09 08:21:17;;;;;;;6.90;4.90;;;;;;;;;;4978156;28;20039;-87
2023/06/09 08:23:44;;;;;;;10.40;6.00;;;;;;;;;;4985816;28;20033;-86
2023/06/09 08:26:12;;;;;;;6.72;4.88;;;;;;;;;;4974051;28;20029;-86
2023/06/09 08:28:38;;;;;;;6.15;5.55;;;;;;;;;;4975621;28;20048;-85
2023/06/09 08:31:04;;;;;;;6.47;5.03;;;;;;;;;;4970107;28;20027;-86
2023/06/09 08:33:35;;;;;;;12.20;5.18;;;;;;;;;;4978400;28;20058;-85
2023/06/09 08:36:04;;;;;;;6.53;5.13;;;;;;;;;;4989302;28;20069;-87
2023/06/09 08:38:34;;;;;;;7.15;5.30;;;;;;;;;;4975892;28;20050;-87
2023/06/09 08:41:09;;;;;;;6.75;5.15;;;;;;;;;;4988924;28;20058;-88
2023/06/09 08:43:36;;;;;;;9.27;5.50;;;;;;;;;;4975431;28;20027;-86
2023/06/09 08:46:05;;;;;;;7.55;5.05;;;;;;;;;;4970521;28;20056;-88
2023/06/09 08:48:33;;;;;;;8.23;5.57;;;;;;;;;;4965023;28;20042;-86
2023/06/09 08:50:59;;;;;;;8.32;5.03;;;;;;;;;;4979777;28;20022;-88
2023/06/09 08:53:28;;;;;;;7.18;5.00;;;;;;;;;;4978649;28;20475;-87
2023/06/09 08:55:54;;;;;;;8.73;5.00;;;;;;;;;;4979805;28;20109;-88
2023/06/09 08:58:23;;;;;;;8.05;5.80;;;;;;;;;;4973684;28;20531;-86
2023/06/09 09:00:50;;;;;;;11.00;5.10;;;;;;;;;;4973484;28;20119;-86
2023/06/09 09:03:17;;;;;;;6.30;5.03;;;;;;;;;;4974656;28;20023;-88
2023/06/09 09:05:43;;;;;;;5.38;4.47;;;;;;;;;;4979142;28;20026;-87
2023/06/09 09:08:10;;;;;;;7.35;5.32;;;;;;;;;;4976975;28;20041;-87
2023/06/09 09:10:40;;;;;;;6.63;5.40;;;;;;;;;;4975628;28;20026;-87
2023/06/09 09:13:08;;;;;;;6.45;5.03;;;;;;;;;;4979681;28;20027;-87
2023/06/09 09:15:34;;;;;;;8.13;5.85;;;;;;;;;;4969370;28;20027;-86
2023/06/09 09:18:00;;;;;;;7.93;5.03;;;;;;;;;;4967752;28;20039;-88
2023/06/09 09:20:33;;;;;;;9.20;5.43;;;;;;;;;;4970644;28;20088;-88
2023/06/09 09:23:00;;;;;;;5.30;4.80;;;;;;;;;;4976776;28;20041;-88
2023/06/09 09:25:26;;;;;;;6.88;5.32;;;;;;;;;;4969770;28;20109;-87
2023/06/09 09:27:58;;;;;;;7.55;4.90;;;;;;;;;;4976177;28;20041;-88
2023/06/09 09:30:24;;;;;;;;;;;;;;;;;;4974147;28;21580;-87
2023/06/09 09:32:50;;;;;;;7.22;4.43;;;;;;;;;;4996659;28;19910;-87
2023/06/09 09:35:16;;;;;;;6.03;3.67;;;;;;;;;;4971242;28;20034;-86
2023/06/09 09:37:42;;;;;;;5.45;4.20;;;;;;;;;;4977426;28;20026;-88
2023/06/09 09:40:14;;;;;;;4.80;4.25;;;;;;;;;;4969249;28;20093;-86
2023/06/09 09:42:45;;;;;;;6.53;4.45;;;;;;;;;;4985653;28;20086;-88
2023/06/09 09:45:11;;;;;;;5.57;3.72;;;;;;;;;;4971884;28;20030;-87
2023/06/09 09:47:37;;;;;;;5.45;3.50;;;;;;;;;;4976614;28;20022;-89
2023/06/09 09:50:03;;;;;;;6.55;3.70;;;;;;;;;;4969236;28;20454;-87
2023/06/09 09:52:34;;;;;;;7.75;4.45;;;;;;;;;;4972562;28;20059;-88
2023/06/09 09:55:04;;;;;;;4.32;3.88;;;;;;;;;;4973064;28;20038;-87
2023/06/09 09:57:32;;;;;;;7.03;3.78;;;;;;;;;;4971385;28;20359;-85
2023/06/09 10:00:07;;;;;;;5.25;3.90;;;;;;;;;;4972900;28;20033;-85
2023/06/09 10:02:38;;;;;;;8.02;4.15;;;;;;;;;;4969689;28;20491;-88
2023/06/09 10:05:05;;;;;;;7.82;3.00;;;;;;;;;;4973873;28;20368;-86
2023/06/09 10:07:34;;;;;;;7.05;3.50;;;;;;;;;;4991089;28;20022;-87
2023/06/09 10:10:00;;;;;;;5.90;3.08;;;;;;;;;;4974694;28;20034;-88
2023/06/09 10:12:27;;;;;;;5.45;3.25;;;;;;;;;;4965748;28;20037;-88
2023/06/09 10:14:54;;;;;;;4.97;3.63;;;;;;;;;;4970754;28;20027;-87
2023/06/09 10:17:21;;;;;;;6.07;3.92;;;;;;;;;;4974712;28;20027;-87
2023/06/09 10:19:50;;;;;;;9.43;3.63;;;;;;;;;;4969749;28;20101;-86
2023/06/09 10:22:16;;;;;;;4.00;3.60;;;;;;;;;;4970013;28;20520;-87
2023/06/09 10:24:43;;;;;;;9.48;3.92;;;;;;;;;;4992270;28;20030;-86
2023/06/09 10:27:09;;;;;;;6.35;3.72;;;;;;;;;;4968573;28;20160;-87
2023/06/09 10:29:38;;;;;;;5.35;3.53;;;;;;;;;;4970297;28;20403;-87
2023/06/09 10:32:04;;;;;;;7.47;3.67;;;;;;;;;;4976484;28;20030;-87
2023/06/09 10:34:33;;;;;;;4.88;3.75;;;;;;;;;;4973332;28;20023;-87
2023/06/09 10:36:59;;;;;;;4.20;3.50;;;;;;;;;;4975597;28;20041;-86
2023/06/09 10:39:32;;;;;;;6.18;3.40;;;;;;;;;;4994105;28;20109;-88
2023/06/09 10:42:18;;;;;;;6.22;3.10;;;;;;;;;;4967241;28;20030;-86
2023/06/09 10:45:07;;;;;;;8.40;3.50;;;;;;;;;;4979878;28;20041;-87
2023/06/09 10:47:45;;;;;;;3.70;2.72;;;;;;;;;;4976086;28;20026;-87
2023/06/09 10:50:24;;;;;;;5.43;3.10;;;;;;;;;;4974590;28;20089;-87
2023/06/09 10:52:53;;;;;;;5.38;3.85;;;;;;;;;;4967735;28;20125;-87
2023/06/09 10:55:21;;;;;;;10.45;3.45;;;;;;;;;;4973739;28;20084;-87
2023/06/09 10:57:47;;;;;;;6.45;3.75;;;;;;;;;;4974730;28;20109;-87
2023/06/09 11:00:16;;;;;;;4.45;3.08;;;;;;;;;;4973394;28;20034;-87
2023/06/09 11:02:46;;;;;;;4.93;3.53;;;;;;;;;;4972534;28;20037;-87
2023/06/09 11:05:13;;;;;;;6.55;3.53;;;;;;;;;;4976203;28;20057;-86
2023/06/09 11:07:40;;;;;;;7.97;3.63;;;;;;;;;;4988512;28;20031;-87
2023/06/09 11:10:06;;;;;;;5.78;2.95;;;;;;;;;;4972215;28;20034;-86
2023/06/09 11:12:38;;;;;;;5.40;3.47;;;;;;;;;;4967222;28;20189;-88
2023/06/09 11:15:07;;;;;;;3.30;3.00;;;;;;;;;;4967773;28;20430;-87
2023/06/09 11:17:43;;;;;;;5.28;3.47;;;;;;;;;;4991360;28;20026;-85
2023/06/09 11:20:09;;;;;;;5.55;3.25;;;;;;;;;;4964831;28;20022;-87
2023/06/09 11:22:35;;;;;;;5.03;2.65;;;;;;;;;;4975760;28;20037;-86
2023/06/09 11:25:02;;;;;;;4.57;3.00;;;;;;;;;;4970283;28;20027;-86
2023/06/09 11:27:28;;;;;;;2.92;2.63;;;;;;;;;;4968169;28;20034;-87
2023/06/09 11:30:07;;;;;;;3.88;3.08;;;;;;;;;;4964023;28;20035;-86
2023/06/09 11:32:51;;;;;;;5.07;3.35;;;;;;;;;;4974327;28;20093;-87
2023/06/09 11:35:39;;;;;;;3.78;3.00;;;;;;;;;;4968571;28;20093;-86
2023/06/09 11:38:07;;;;;;;5.55;2.90;;;;;;;;;;4971767;28;20085;-87
2023/06/09 11:40:40;;;;;;;5.30;3.20;;;;;;;;;;4973168;28;20034;-87
2023/06/09 11:43:09;;;;;;;3.17;2.85;;;;;;;;;;4970012;28;20022;-87
2023/06/09 11:45:36;;;;;;;4.47;3.10;;;;;;;;;;4970296;28;20044;-85
2023/06/09 11:48:04;;;;;;;4.20;3.13;;;;;;;;;;4971337;28;20023;-87
2023/06/09 11:50:43;;;;;;;3.42;3.13;;;;;;;;;;4992082;28;20142;-85
2023/06/09 11:53:32;;;;;;;5.13;2.70;;;;;;;;;;4974106;28;20034;-85
2023/06/09 11:55:59;;;;;;;3.90;3.22;;;;;;;;;;4990628;28;20106;-86
2023/06/09 11:58:25;;;;;;;4.15;3.13;;;;;;;;;;4987483;28;20018;-87
2023/06/09 12:00:52;;;;;;;3.95;3.33;;;;;;;;;;4973250;28;20564;-87
2023/06/09 12:03:19;;;;;;;3.20;2.80;;;;;;;;;;4984510;28;20019;-86
2023/06/09 12:05:50;;;;;;;4.47;2.42;;;;;;;;;;4971784;28;20033;-86
2023/06/09 12:08:17;;;;;;;3.25;2.88;;;;;;;;;;4970320;28;20030;-86
2023/06/09 12:10:43;;;;;;;3.55;3.25;;;;;;;;;;4968054;28;20038;-86
2023/06/09 12:13:09;;;;;;;5.75;2.83;;;;;;;;;;4972766;28;20021;-86
2023/06/09 12:15:35;;;;;;;5.40;3.22;;;;;;;;;;4970810;28;20034;-86
2023/06/09 12:18:02;;;;;;;3.72;3.17;;;;;;;;;;4977190;28;20029;-86
2023/06/09 12:20:31;;;;;;;3.80;2.75;;;;;;;;;;4974287;28;20034;-86
2023/06/09 12:22:57;;;;;;;5.00;3.75;;;;;;;;;;4972145;28;20045;-87
2023/06/09 12:25:27;;;;;;;3.53;2.97;;;;;;;;;;4974681;28;20033;-86
2023/06/09 12:27:54;;;;;;;3.90;2.97;;;;;;;;;;4974284;28;20040;-86
2023/06/09 12:30:36;;;;;;;9.75;4.07;;;;;;;;;;4977416;28;20187;-87
2023/06/09 12:33:06;;;;;;;4.22;3.13;;;;;;;;;;4973673;28;20041;-87
2023/06/09 12:35:45;;;;;;;3.10;2.75;;;;;;;;;;4977309;28;20022;-87
2023/06/09 12:38:13;;;;;;;8.75;3.65;;;;;;;;;;4969496;28;20081;-86
2023/06/09 12:40:56;;;;;;;5.47;2.60;;;;;;;;;;4971089;28;20026;-86
2023/06/09 12:43:26;;;;;;;3.72;3.03;;;;;;;;;;4985058;28;20045;-86
2023/06/09 12:45:56;;;;;;;3.70;2.63;;;;;;;;;;4990838;28;20022;-86
2023/06/09 12:48:23;;;;;;;6.10;2.97;;;;;;;;;;4974819;28;20367;-86
2023/06/09 12:50:49;;;;;;;4.25;2.25;;;;;;;;;;4976474;28;20042;-87
2023/06/09 12:53:15;;;;;;;5.15;2.88;;;;;;;;;;4973301;28;20358;-86
2023/06/09 12:55:41;;;;;;;4.57;2.72;;;;;;;;;;4973390;28;20089;-86
2023/06/09 12:58:08;;;;;;;3.55;2.40;;;;;;;;;;4975978;28;20026;-85
2023/06/09 13:00:37;;;;;;;4.88;3.30;;;;;;;;;;4993011;28;20038;-86
2023/06/09 13:03:04;;;;;;;4.07;2.88;;;;;;;;;;4989638;28;20030;-87
2023/06/09 13:05:31;;;;;;;4.28;2.80;;;;;;;;;;4973015;28;20049;-86
2023/06/09 13:07:58;;;;;;;4.13;3.03;;;;;;;;;;4979028;28;20093;-86
2023/06/09 13:10:24;;;;;;;5.10;2.85;;;;;;;;;;4984195;28;20022;-86
2023/06/09 13:12:51;;;;;;;4.10;2.80;;;;;;;;;;4975333;28;20133;-87
2023/06/09 13:15:17;;;;;;;3.75;3.20;;;;;;;;;;4969668;28;20031;-86
2023/06/09 13:17:43;;;;;;;3.97;3.00;;;;;;;;;;4978464;28;20038;-86
2023/06/09 13:20:09;;;;;;;7.50;3.28;;;;;;;;;;4975460;28;20359;-88
2023/06/09 13:22:35;;;;;;;3.33;2.88;;;;;;;;;;4975636;28;20038;-87
2023/06/09 13:25:01;;;;;;;2.90;2.60;;;;;;;;;;4974122;28;20054;-87
2023/06/09 13:27:27;;;;;;;4.22;3.03;;;;;;;;;;4971757;28;20041;-86
2023/06/09 13:29:53;;;;;;;4.38;2.85;;;;;;;;;;4984159;28;20031;-86
2023/06/09 13:32:21;;;;;;;4.20;2.80;;;;;;;;;;4973574;28;20101;-87
2023/06/09 13:34:47;;;;;;;6.53;3.45;;;;;;;;;;4975482;28;20034;-87
2023/06/09 13:37:13;;;;;;;6.07;3.25;;;;;;;;;;4980390;28;20281;-86
2023/06/09 13:39:39;;;;;;;4.55;3.47;;;;;;;;;;4977959;28;20022;-86
2023/06/09 13:42:06;;;;;;;4.07;2.80;;;;;;;;;;4972156;28;20031;-86
2023/06/09 13:44:32;;;;;;;3.53;2.80;;;;;;;;;;4968996;28;20034;-87
2023/06/09 13:46:58;;;;;;;7.93;2.90;;;;;;;;;;4979191;28;20034;-86
2023/06/09 13:49:24;;;;;;;6.45;3.20;;;;;;;;;;4979226;28;20027;-87
2023/06/09 13:51:51;;;;;;;5.72;3.17;;;;;;;;;;4969989;28;20162;-87
2023/06/09 13:54:17;;;;;;;3.78;3.10;;;;;;;;;;4994748;28;20026;-87
2023/06/09 13:56:42;;;;;;;4.82;3.58;;;;;;;;;;4971390;28;20022;-87
2023/06/09 13:59:08;;;;;;;4.65;3.45;;;;;;;;;;4974955;28;20414;-87
2023/06/09 14:01:37;;;;;;;3.83;3.20;;;;;;;;;;4982994;28;20022;-85
2023/06/09 14:04:03;;;;;;;3.95;3.53;;;;;;;;;;4971387;28;20033;-87
2023/06/09 14:06:29;;;;;;;5.40;4.22;;;;;;;;;;4969157;28;20074;-86
2023/06/09 14:08:55;;;;;;;3.35;3.05;;;;;;;;;;4985238;28;20037;-87
2023/06/09 14:11:24;;;;;;;3.58;3.08;;;;;;;;;;4967484;28;20026;-87
2023/06/09 14:13:50;;;;;;;4.00;3.10;;;;;;;;;;4989749;28;20033;-87
2023/06/09 14:16:16;;;;;;;4.38;3.25;;;;;;;;;;4975810;28;20381;-88
2023/06/09 14:18:42;;;;;;;7.63;2.75;;;;;;;;;;4968017;28;20038;-87
2023/06/09 14:21:08;;;;;;;5.05;2.80;;;;;;;;;;4971366;28;20026;-87
2023/06/09 14:23:35;;;;;;;4.82;3.20;;;;;;;;;;4975296;28;20049;-88
2023/06/09 14:26:01;;;;;;;6.25;3.40;;;;;;;;;;4971441;28;20061;-87
2023/06/09 14:28:27;;;;;;;4.88;3.05;;;;;;;;;;4979981;28;20039;-87
2023/06/09 14:30:55;;;;;;;5.35;2.78;;;;;;;;;;4973231;28;20472;-88
2023/06/09 14:33:21;;;;;;;3.67;3.38;;;;;;;;;;4979782;28;20033;-87
2023/06/09 14:35:47;;;;;;;6.70;3.53;;;;;;;;;;4972482;28;20023;-87
2023/06/09 14:38:13;;;;;;;5.18;3.03;;;;;;;;;;4970933;28;20462;-87
2023/06/09 14:40:39;;;;;;;3.63;3.30;;;;;;;;;;4971952;28;20053;-87
2023/06/09 14:43:08;;;;;;;5.70;2.85;;;;;;;;;;4973315;28;20041;-86